Time;durP1;ratioP1;P1;durP2;ratioP2;P2;SDS_P1;SDS_P2;PMS_P1;PMS_P2;Temp;Humidity;BMP_temperature;BMP_pressure;BME280_temperature;BME280_humidity;BME280_pressure;Samples;Min_cycle;Max_cycle;Signal;HPM_P1;HPM_P2
2023/03/28 00:00:18;;;;;;;0.50;0.50;;;;;;;9.62;100.00;98009.59;5121988;27;20205;-65
2023/03/28 00:02:45;;;;;;;0.50;0.50;;;;;;;9.61;100.00;98002.81;5115116;27;20689;-65
2023/03/28 00:05:12;;;;;;;0.70;0.70;;;;;;;9.60;100.00;98012.22;5119027;27;20586;-65
2023/03/28 00:07:39;;;;;;;0.80;0.80;;;;;;;9.59;100.00;98014.88;5127765;27;20282;-65
2023/03/28 00:10:07;;;;;;;0.53;0.53;;;;;;;9.56;100.00;98025.25;5127754;27;20210;-65
2023/03/28 00:12:34;;;;;;;0.50;0.50;;;;;;;9.55;100.00;98023.59;5131909;27;20208;-66
2023/03/28 00:15:03;;;;;;;0.70;0.70;;;;;;;9.47;100.00;98027.31;5131943;27;20217;-65
2023/03/28 00:17:30;;;;;;;0.40;0.40;;;;;;;9.41;100.00;98027.63;5130913;27;20231;-65
2023/03/28 00:19:57;;;;;;;0.60;0.60;;;;;;;9.43;100.00;98033.47;5131994;27;20666;-65
2023/03/28 00:22:23;;;;;;;0.50;0.50;;;;;;;9.42;100.00;98036.97;5132054;27;20194;-65
2023/03/28 00:24:52;;;;;;;0.50;0.50;;;;;;;9.39;100.00;98024.31;5126823;27;20290;-66
2023/03/28 00:27:19;;;;;;;0.77;0.77;;;;;;;9.41;100.00;98032.75;5127061;27;20191;-66
2023/03/28 00:29:45;;;;;;;0.60;0.60;;;;;;;9.37;100.00;98031.22;5132040;27;20213;-65
2023/03/28 00:32:14;;;;;;;0.50;0.50;;;;;;;9.41;100.00;98035.28;5126475;27;20686;-65
2023/03/28 00:34:40;;;;;;;0.60;0.60;;;;;;;9.43;100.00;98032.69;5127172;27;20214;-65
2023/03/28 00:37:09;;;;;;;0.40;0.40;;;;;;;9.43;100.00;98040.34;5131960;27;20190;-65
2023/03/28 00:39:36;;;;;;;0.60;0.60;;;;;;;9.45;100.00;98031.69;5127529;27;20221;-65
2023/03/28 00:42:03;;;;;;;0.50;0.50;;;;;;;9.44;100.00;98036.88;5131875;27;20685;-66
2023/03/28 00:44:48;;;;;;;0.50;0.50;;;;;;;9.40;100.00;98031.06;5124289;27;20219;-65
2023/03/28 00:47:29;;;;;;;0.50;0.50;;;;;;;9.32;100.00;98048.53;5130296;27;20248;-66
2023/03/28 00:50:01;;;;;;;0.57;0.57;;;;;;;9.33;100.00;98050.19;5129890;27;20210;-65
2023/03/28 00:52:33;;;;;;;0.50;0.50;;;;;;;9.33;100.00;98047.63;5123053;27;20197;-66
2023/03/28 00:55:01;;;;;;;0.60;0.60;;;;;;;9.25;98.39;98059.09;5128163;27;20756;-65
2023/03/28 00:57:28;;;;;;;0.60;0.60;;;;;;;9.13;98.75;98047.72;5123113;27;20297;-65
2023/03/28 00:59:55;;;;;;;0.40;0.40;;;;;;;9.07;98.01;98071.00;5125703;27;20202;-65
2023/03/28 01:02:24;;;;;;;0.70;0.70;;;;;;;9.00;98.46;98059.38;5128095;27;20202;-66
2023/03/28 01:04:56;;;;;;;0.57;0.57;;;;;;;8.86;99.39;98079.59;5125601;27;20204;-65
2023/03/28 01:07:24;;;;;;;0.57;0.57;;;;;;;8.82;99.64;98083.22;5124558;27;20206;-65
2023/03/28 01:09:52;;;;;;;0.50;0.50;;;;;;;8.71;100.00;98095.63;5131370;27;20264;-65
2023/03/28 01:12:20;;;;;;;0.50;0.50;;;;;;;8.66;100.00;98105.22;5126457;27;20318;-65
2023/03/28 01:14:47;;;;;;;0.60;0.60;;;;;;;8.49;100.00;98085.50;5127889;27;20241;-65
2023/03/28 01:17:14;;;;;;;0.70;0.70;;;;;;;8.51;100.00;98105.84;5121667;27;20186;-65
2023/03/28 01:20:03;;;;;;;0.57;0.57;;;;;;;8.48;100.00;98104.25;5130385;27;20198;-65
2023/03/28 01:23:00;;;;;;;0.63;0.63;;;;;;;8.49;100.00;98105.94;5123027;27;20198;-65
2023/03/28 01:25:55;;;;;;;0.50;0.50;;;;;;;8.36;99.65;98105.63;5130819;27;20202;-65
2023/03/28 01:28:41;;;;;;;0.50;0.50;;;;;;;8.23;99.62;98107.00;5130559;27;20681;-65
2023/03/28 01:31:31;;;;;;;0.60;0.60;;;;;;;8.13;99.99;98112.53;5126367;27;20201;-65
2023/03/28 01:34:30;;;;;;;0.70;0.70;;;;;;;8.08;100.00;98107.59;5130999;27;20558;-65
2023/03/28 01:37:33;;;;;;;0.60;0.60;;;;;;;7.98;98.12;98121.63;5128248;27;20259;-65
2023/03/28 01:40:16;;;;;;;0.57;0.57;;;;;;;7.90;96.77;98118.56;5120115;27;20201;-65
2023/03/28 01:42:51;;;;;;;0.60;0.60;;;;;;;7.84;97.05;98132.41;5123836;28;20251;-65
2023/03/28 01:45:28;;;;;;;0.80;0.80;;;;;;;7.78;95.88;98136.91;5129397;27;20209;-65
2023/03/28 01:48:04;;;;;;;0.60;0.60;;;;;;;7.72;94.77;98129.50;5130824;28;20573;-65
2023/03/28 01:50:41;;;;;;;0.60;0.60;;;;;;;7.72;94.38;98132.06;5119322;28;20193;-65
2023/03/28 01:53:15;;;;;;;0.50;0.50;;;;;;;7.65;95.10;98134.00;5112261;28;20627;-65
2023/03/28 01:55:50;;;;;;;0.60;0.60;;;;;;;7.60;94.52;98147.81;5122410;28;20221;-65
2023/03/28 01:58:28;;;;;;;0.60;0.60;;;;;;;7.59;94.76;98161.47;5128627;28;20280;-65
2023/03/28 02:01:03;;;;;;;0.67;0.67;;;;;;;7.58;94.08;98159.78;5119356;28;20740;-66
2023/03/28 02:03:33;;;;;;;0.67;0.67;;;;;;;7.64;93.50;98172.31;5125635;28;20197;-65
2023/03/28 02:06:01;;;;;;;0.60;0.60;;;;;;;7.57;93.54;98178.53;5123894;28;20254;-65
2023/03/28 02:08:33;;;;;;;0.57;0.57;;;;;;;7.48;93.66;98178.88;5124326;28;20228;-65
2023/03/28 02:11:00;;;;;;;0.70;0.70;;;;;;;7.45;93.55;98186.63;5127047;27;20207;-65
2023/03/28 02:13:32;;;;;;;0.60;0.60;;;;;;;7.25;92.62;98157.59;5124093;28;20205;-65
2023/03/28 02:16:02;;;;;;;0.70;0.70;;;;;;;7.42;92.78;98187.59;5128056;28;20666;-65
2023/03/28 02:18:35;;;;;;;0.60;0.60;;;;;;;7.37;92.42;98199.66;5116681;28;20669;-65
2023/03/28 02:21:06;;;;;;;0.60;0.60;;;;;;;7.43;93.16;98211.38;5124463;27;20651;-65
2023/03/28 02:23:38;;;;;;;0.70;0.70;;;;;;;7.34;93.46;98203.16;5128086;27;20207;-65
2023/03/28 02:26:06;;;;;;;0.50;0.50;;;;;;;7.37;93.67;98200.50;5128935;27;20577;-65
2023/03/28 02:28:35;;;;;;;0.57;0.57;;;;;;;7.35;94.57;98204.81;5127907;27;20224;-65
2023/03/28 02:31:03;;;;;;;0.60;0.60;;;;;;;7.33;94.20;98211.66;5127060;27;20289;-65
2023/03/28 02:33:36;;;;;;;0.70;0.70;;;;;;;7.33;93.65;98219.31;5127291;27;20227;-65
2023/03/28 02:36:11;;;;;;;0.60;0.60;;;;;;;7.30;92.89;98214.34;5124931;27;20201;-65
2023/03/28 02:38:48;;;;;;;0.70;0.70;;;;;;;7.28;92.40;98217.84;5124476;27;20197;-65
2023/03/28 02:41:26;;;;;;;0.60;0.60;;;;;;;7.22;91.08;98218.88;5122343;27;20190;-65
2023/03/28 02:44:14;;;;;;;0.50;0.50;;;;;;;7.10;91.37;98229.53;5119201;27;20209;-65
2023/03/28 02:46:54;;;;;;;0.77;0.77;;;;;;;7.05;91.77;98221.19;5116533;27;20654;-65
2023/03/28 02:49:37;;;;;;;0.80;0.80;;;;;;;6.95;91.20;98250.41;5126736;27;20758;-65
2023/03/28 02:52:13;;;;;;;0.70;0.70;;;;;;;6.92;91.40;98250.50;5119736;27;20294;-65
2023/03/28 02:54:50;;;;;;;0.60;0.60;;;;;;;6.82;91.25;98260.19;5122693;27;20681;-65
2023/03/28 02:57:26;;;;;;;0.50;0.50;;;;;;;6.75;90.79;98268.09;5116237;27;20198;-65
2023/03/28 02:59:56;;;;;;;0.70;0.70;;;;;;;6.70;90.78;98264.84;5115689;27;20256;-65
2023/03/28 03:02:23;;;;;;;0.67;0.67;;;;;;;6.64;90.71;98270.97;5122948;27;20704;-65
2023/03/28 03:04:50;;;;;;;0.70;0.70;;;;;;;6.63;91.63;98263.38;5126849;27;20572;-65
2023/03/28 03:07:19;;;;;;;0.50;0.50;;;;;;;6.50;90.03;98267.19;5125547;27;20677;-65
2023/03/28 03:09:52;;;;;;;0.77;0.77;;;;;;;6.39;90.90;98274.34;5129537;27;20607;-64
2023/03/28 03:12:19;;;;;;;0.73;0.73;;;;;;;6.34;90.63;98274.50;5121833;27;20216;-65
2023/03/28 03:14:49;;;;;;;0.80;0.80;;;;;;;6.29;90.43;98278.91;5121481;27;20355;-64
2023/03/28 03:17:16;;;;;;;0.70;0.70;;;;;;;6.20;90.77;98290.19;5116321;27;20195;-65
2023/03/28 03:19:43;;;;;;;0.70;0.70;;;;;;;6.16;91.21;98283.53;5123473;27;20198;-65
2023/03/28 03:22:10;;;;;;;0.70;0.70;;;;;;;6.19;91.87;98295.31;5131146;27;20279;-65
2023/03/28 03:24:37;;;;;;;0.60;0.60;;;;;;;6.12;91.65;98299.78;5134026;27;20565;-65
2023/03/28 03:27:05;;;;;;;0.80;0.80;;;;;;;6.09;91.22;98301.56;5126723;27;20207;-65
2023/03/28 03:29:31;;;;;;;0.60;0.60;;;;;;;5.87;90.44;98286.13;5126004;27;20194;-65
2023/03/28 03:31:58;;;;;;;0.60;0.60;;;;;;;5.97;91.04;98317.19;5132771;27;20198;-65
2023/03/28 03:34:25;;;;;;;0.60;0.60;;;;;;;5.94;90.88;98313.03;5124904;27;20214;-64
2023/03/28 03:36:53;;;;;;;0.60;0.60;;;;;;;5.89;90.09;98319.94;5136183;27;20265;-64
2023/03/28 03:39:20;;;;;;;0.70;0.70;;;;;;;5.86;89.95;98314.13;5132072;27;20288;-65
2023/03/28 03:41:47;;;;;;;1.10;1.10;;;;;;;5.79;89.39;98323.59;5126048;27;20201;-65
2023/03/28 03:44:15;;;;;;;0.70;0.70;;;;;;;5.73;89.40;98339.88;5120718;27;20203;-65
2023/03/28 03:46:42;;;;;;;0.70;0.70;;;;;;;5.63;89.28;98315.56;5125981;27;20554;-65
2023/03/28 03:49:10;;;;;;;0.70;0.70;;;;;;;5.70;89.92;98350.13;5131193;27;20198;-64
2023/03/28 03:51:38;;;;;;;0.80;0.80;;;;;;;5.65;89.35;98348.59;5131686;27;20246;-65
2023/03/28 03:54:05;;;;;;;0.60;0.60;;;;;;;5.68;89.10;98356.97;5124569;27;20198;-65
2023/03/28 03:56:33;;;;;;;0.60;0.60;;;;;;;5.61;88.93;98344.44;5130078;27;20226;-65
2023/03/28 03:59:00;;;;;;;0.90;0.90;;;;;;;5.69;89.65;98347.59;5127638;27;20213;-65
2023/03/28 04:01:28;;;;;;;0.80;0.80;;;;;;;5.73;88.58;98351.75;5117596;27;20201;-65
2023/03/28 04:03:55;;;;;;;0.80;0.80;;;;;;;5.64;88.26;98362.16;5126044;27;20226;-64
2023/03/28 04:06:22;;;;;;;1.03;1.03;;;;;;;5.67;88.59;98375.63;5119977;27;20208;-65
2023/03/28 04:08:50;;;;;;;0.60;0.60;;;;;;;5.62;88.17;98371.56;5125075;27;20686;-64
2023/03/28 04:11:17;;;;;;;0.70;0.70;;;;;;;5.56;87.40;98376.78;5126544;27;20732;-65
2023/03/28 04:13:43;;;;;;;3.30;1.23;;;;;;;5.57;86.55;98383.53;5123397;27;20263;-65
2023/03/28 04:16:12;;;;;;;0.70;0.70;;;;;;;5.43;87.47;98378.81;5115652;27;20704;-65
2023/03/28 04:18:49;;;;;;;0.60;0.60;;;;;;;5.50;nan;98392.19;5121466;27;20667;-65
2023/03/28 04:21:17;;;;;;;0.70;0.70;;;;;;;5.47;86.79;98407.50;5118927;27;20228;-64
2023/03/28 04:23:47;;;;;;;0.60;0.60;;;;;;;5.47;86.40;98402.44;5118382;27;20223;-65
2023/03/28 04:26:19;;;;;;;0.70;0.70;;;;;;;5.44;86.22;98395.72;5120478;27;20625;-66
2023/03/28 04:28:46;;;;;;;0.70;0.70;;;;;;;5.36;85.28;98410.34;5122521;27;20705;-65
2023/03/28 04:31:13;;;;;;;0.70;0.70;;;;;;;5.44;85.84;98435.56;5122922;27;20198;-64
2023/03/28 04:33:44;;;;;;;0.60;0.60;;;;;;;5.45;84.77;98430.44;5127676;27;20203;-65
2023/03/28 04:36:11;;;;;;;0.80;0.80;;;;;;;5.47;84.42;98438.00;5124237;27;20247;-64
2023/03/28 04:38:40;;;;;;;0.70;0.70;;;;;;;5.52;83.61;98446.38;5124977;27;20202;-65
2023/03/28 04:41:07;;;;;;;0.70;0.70;;;;;;;5.54;83.67;98455.63;5124968;27;20220;-65
2023/03/28 04:43:34;;;;;;;0.83;0.83;;;;;;;5.52;83.75;98461.63;5120249;27;20214;-65
2023/03/28 04:46:00;;;;;;;0.60;0.60;;;;;;;5.56;83.96;98470.81;5127237;27;20205;-65
2023/03/28 04:48:27;;;;;;;0.83;0.83;;;;;;;5.59;82.45;98463.16;5118946;27;20255;-64
2023/03/28 04:50:56;;;;;;;0.63;0.63;;;;;;;5.59;82.31;98474.13;5123512;27;20214;-65
2023/03/28 04:53:22;;;;;;;0.60;0.60;;;;;;;5.60;82.52;98470.72;5119490;27;20670;-65
2023/03/28 04:55:50;;;;;;;0.70;0.70;;;;;;;5.66;81.16;98484.97;5129612;27;20661;-64
2023/03/28 04:58:17;;;;;;;1.13;1.13;;;;;;;5.64;81.03;98477.41;5131511;27;20202;-65
2023/03/28 05:00:44;;;;;;;0.60;0.60;;;;;;;5.64;80.30;98476.56;5124413;27;20231;-65
2023/03/28 05:03:13;;;;;;;0.70;0.70;;;;;;;5.46;79.72;98460.03;5124438;27;20222;-68
2023/03/28 05:05:40;;;;;;;0.60;0.60;;;;;;;5.71;80.33;98498.44;5119267;27;20745;-61
2023/03/28 05:08:08;;;;;;;0.60;0.60;;;;;;;5.88;78.59;98495.50;5126269;27;20259;-64
2023/03/28 05:10:35;;;;;;;0.63;0.63;;;;;;;6.03;79.15;98508.63;5124456;27;20198;-64
2023/03/28 05:13:02;;;;;;;0.80;0.80;;;;;;;6.00;78.57;98516.34;5126425;27;20707;-64
2023/03/28 05:15:29;;;;;;;0.80;0.80;;;;;;;6.05;79.48;98519.59;5120901;27;20210;-64
2023/03/28 05:17:56;;;;;;;0.80;0.80;;;;;;;6.08;78.27;98539.88;5126894;27;20216;-64
2023/03/28 05:20:23;;;;;;;0.60;0.60;;;;;;;6.08;76.84;98519.50;5114612;27;20301;-64
2023/03/28 05:22:49;;;;;;;0.70;0.70;;;;;;;6.07;76.60;98538.22;5124613;27;20202;-64
2023/03/28 05:25:18;;;;;;;0.60;0.60;;;;;;;6.00;76.55;98531.63;5129751;27;20194;-64
2023/03/28 05:27:45;;;;;;;0.60;0.60;;;;;;;6.00;78.02;98531.63;5127099;27;20247;-65
2023/03/28 05:30:12;;;;;;;0.63;0.63;;;;;;;5.97;77.63;98551.22;5125480;27;20204;-64
2023/03/28 05:32:39;;;;;;;0.50;0.50;;;;;;;6.02;77.53;98536.66;5129822;27;20190;-64
2023/03/28 05:35:08;;;;;;;0.60;0.60;;;;;;;6.15;77.42;98543.94;5125183;27;20272;-64
2023/03/28 05:37:36;;;;;;;0.60;0.60;;;;;;;6.12;77.61;98541.47;5125980;27;20206;-64
2023/03/28 05:40:05;;;;;;;0.60;0.60;;;;;;;6.29;76.62;98544.41;5121683;27;20203;-68
2023/03/28 05:42:34;;;;;;;0.60;0.60;;;;;;;6.40;75.91;98531.38;5115903;27;20273;-66
2023/03/28 05:45:01;;;;;;;0.63;0.63;;;;;;;6.55;76.27;98560.69;5117658;28;20284;-66
2023/03/28 05:47:28;;;;;;;0.70;0.70;;;;;;;6.69;76.26;98561.97;5118796;27;20690;-67
2023/03/28 05:49:55;;;;;;;0.70;0.70;;;;;;;6.85;75.08;98555.56;5123702;27;20205;-65
2023/03/28 05:52:22;;;;;;;0.80;0.80;;;;;;;6.98;73.09;98550.94;5117438;27;20884;-66
2023/03/28 05:54:49;;;;;;;0.60;0.60;;;;;;;6.88;73.50;98575.03;5124239;27;20213;-65
2023/03/28 05:57:16;;;;;;;0.70;0.70;;;;;;;7.09;74.15;98568.47;5125774;27;20255;-65
2023/03/28 05:59:44;;;;;;;0.50;0.50;;;;;;;7.32;74.28;98587.31;5127700;27;20194;-66
2023/03/28 06:02:12;;;;;;;0.60;0.60;;;;;;;7.27;72.66;98584.03;5125182;27;20212;-65
2023/03/28 06:04:39;;;;;;;0.80;0.80;;;;;;;7.23;73.02;98579.94;5123486;27;20329;-65
2023/03/28 06:07:06;;;;;;;3.20;2.23;;;;;;;7.10;72.81;98591.38;5126185;27;20205;-65
2023/03/28 06:09:33;;;;;;;0.70;0.70;;;;;;;7.04;73.31;98596.66;5123337;27;20194;-63
2023/03/28 06:12:01;;;;;;;0.80;0.80;;;;;;;6.91;74.22;98581.75;5129194;27;20201;-63
2023/03/28 06:14:28;;;;;;;0.60;0.60;;;;;;;6.80;73.64;98602.44;5128371;27;20194;-63
2023/03/28 06:16:56;;;;;;;0.70;0.70;;;;;;;6.67;74.69;98601.94;5125000;27;20221;-63
2023/03/28 06:19:24;;;;;;;0.70;0.70;;;;;;;6.79;74.02;98595.66;5131897;27;20194;-63
2023/03/28 06:21:51;;;;;;;0.60;0.60;;;;;;;6.91;73.44;98590.22;5131280;27;20204;-64
2023/03/28 06:24:17;;;;;;;0.60;0.60;;;;;;;7.09;73.58;98610.09;5129167;27;20206;-62
2023/03/28 06:26:44;;;;;;;0.60;0.60;;;;;;;7.15;72.80;98594.59;5126036;27;20643;-65
2023/03/28 06:29:11;;;;;;;0.60;0.60;;;;;;;7.38;72.43;98593.94;5129660;27;20568;-64
2023/03/28 06:31:38;;;;;;;0.60;0.60;;;;;;;7.48;71.23;98586.84;5130004;27;20285;-66
2023/03/28 06:34:06;;;;;;;0.50;0.50;;;;;;;7.32;70.12;98581.38;5122243;27;20202;-64
2023/03/28 06:36:33;;;;;;;0.60;0.60;;;;;;;7.28;71.10;98611.22;5125840;27;20224;-64
2023/03/28 06:39:00;;;;;;;0.50;0.50;;;;;;;7.14;71.01;98530.97;5128266;27;20202;-64
2023/03/28 06:41:27;;;;;;;0.67;0.67;;;;;;;7.25;71.02;98562.88;5128334;27;20290;-64
2023/03/28 06:43:53;;;;;;;0.70;0.70;;;;;;;7.53;71.84;98590.09;5128177;27;20201;-64
2023/03/28 06:46:20;;;;;;;0.50;0.50;;;;;;;7.60;71.20;98576.25;5130486;27;20198;-64
2023/03/28 06:48:47;;;;;;;0.73;0.73;;;;;;;7.52;70.57;98571.41;5129849;27;20213;-64
2023/03/28 06:51:15;;;;;;;0.60;0.60;;;;;;;7.50;70.28;98580.78;5128872;27;20217;-66
2023/03/28 06:53:42;;;;;;;0.60;0.60;;;;;;;7.60;70.20;98586.44;5125703;27;20255;-65
2023/03/28 06:56:09;;;;;;;1.03;1.03;;;;;;;7.60;70.01;98601.75;5118570;27;20233;-64
2023/03/28 06:58:36;;;;;;;0.60;0.60;;;;;;;7.70;70.25;98598.03;5128163;27;20254;-65
2023/03/28 07:01:03;;;;;;;0.70;0.70;;;;;;;7.73;68.90;98626.00;5130063;27;20282;-65
2023/03/28 07:03:29;;;;;;;0.60;0.60;;;;;;;7.76;69.75;98620.78;5128038;27;20202;-64
2023/03/28 07:05:56;;;;;;;0.60;0.60;;;;;;;7.75;69.63;98616.59;5122333;27;20306;-64
2023/03/28 07:08:25;;;;;;;0.70;0.70;;;;;;;7.81;68.95;98618.94;5126157;27;20202;-64
2023/03/28 07:10:52;;;;;;;0.70;0.70;;;;;;;7.76;67.91;98613.16;5120351;27;20208;-65
2023/03/28 07:13:19;;;;;;;0.60;0.60;;;;;;;7.75;68.19;98631.91;5127030;27;20202;-64
2023/03/28 07:15:45;;;;;;;0.70;0.70;;;;;;;7.62;69.25;98626.34;5123348;27;20605;-65
2023/03/28 07:18:12;;;;;;;0.70;0.70;;;;;;;7.53;68.08;98651.31;5128209;27;20209;-66
2023/03/28 07:20:40;;;;;;;0.60;0.60;;;;;;;7.38;69.08;98648.31;5130499;27;20271;-65
2023/03/28 07:23:07;;;;;;;0.60;0.60;;;;;;;7.56;69.74;98651.22;5122078;27;20562;-65
2023/03/28 07:25:35;;;;;;;0.60;0.60;;;;;;;7.61;69.12;98649.34;5121165;27;20206;-65
2023/03/28 07:28:02;;;;;;;0.60;0.60;;;;;;;7.69;70.39;98647.41;5129068;27;20669;-64
2023/03/28 07:30:30;;;;;;;0.60;0.60;;;;;;;7.72;68.27;98642.22;5121423;27;20207;-65
2023/03/28 07:32:56;;;;;;;0.60;0.60;;;;;;;7.79;69.06;98648.75;5117520;27;20566;-65
2023/03/28 07:35:23;;;;;;;0.73;0.73;;;;;;;7.98;69.23;98660.06;5124230;27;20598;-65
2023/03/28 07:37:50;;;;;;;0.50;0.50;;;;;;;7.93;66.62;98644.06;5129101;27;20198;-65
2023/03/28 07:40:17;;;;;;;0.60;0.60;;;;;;;7.81;67.52;98641.91;5130926;27;20250;-66
2023/03/28 07:42:45;;;;;;;0.60;0.60;;;;;;;7.97;67.54;98647.38;5121488;27;20213;-65
2023/03/28 07:45:12;;;;;;;0.70;0.70;;;;;;;8.08;68.32;98651.22;5121264;27;20551;-66
2023/03/28 07:47:38;;;;;;;0.50;0.50;;;;;;;8.31;67.59;98651.38;5129922;27;20202;-68
2023/03/28 07:50:06;;;;;;;0.60;0.60;;;;;;;8.47;66.06;98648.28;5117163;27;20198;-65
2023/03/28 07:52:33;;;;;;;0.60;0.60;;;;;;;8.42;65.38;98654.41;5118350;27;20202;-64
2023/03/28 07:55:00;;;;;;;0.60;0.60;;;;;;;8.55;66.84;98636.09;5125568;27;20685;-65
2023/03/28 07:57:27;;;;;;;0.70;0.70;;;;;;;8.63;65.63;98639.22;5125438;27;20224;-69
2023/03/28 07:59:56;;;;;;;0.50;0.50;;;;;;;8.75;64.11;98660.09;5126851;27;20274;-66
2023/03/28 08:02:23;;;;;;;0.60;0.60;;;;;;;8.91;65.58;98653.56;5123370;27;20202;-62
2023/03/28 08:04:52;;;;;;;0.50;0.50;;;;;;;9.20;65.23;98652.50;5117571;27;20202;-66
2023/03/28 08:07:25;;;;;;;0.60;0.60;;;;;;;9.22;64.15;98648.16;5120197;27;20278;-65
2023/03/28 08:09:52;;;;;;;0.50;0.50;;;;;;;9.17;63.85;98652.63;5122860;27;20199;-67
2023/03/28 08:12:20;;;;;;;0.63;0.63;;;;;;;9.11;62.09;98647.72;5126851;27;20904;-66
2023/03/28 08:14:47;;;;;;;0.50;0.50;;;;;;;9.13;63.69;98656.19;5119239;27;20622;-66
2023/03/28 08:17:15;;;;;;;1.20;1.20;;;;;;;9.20;62.56;98677.25;5124745;27;20225;-67
2023/03/28 08:19:43;;;;;;;0.60;0.60;;;;;;;9.39;64.19;98699.53;5124883;27;20194;-66
2023/03/28 08:22:11;;;;;;;0.50;0.50;;;;;;;9.35;62.69;98682.63;5122945;27;20243;-66
2023/03/28 08:24:39;;;;;;;0.50;0.50;;;;;;;9.09;61.92;98695.53;5124680;27;20198;-67
2023/03/28 08:27:06;;;;;;;0.70;0.70;;;;;;;8.96;61.78;98673.84;5122385;27;20198;-65
2023/03/28 08:29:33;;;;;;;0.73;0.73;;;;;;;8.79;63.61;98691.47;5130026;27;20225;-67
2023/03/28 08:31:59;;;;;;;0.53;0.53;;;;;;;8.98;62.21;98700.19;5128682;27;20554;-67
2023/03/28 08:34:27;;;;;;;0.50;0.50;;;;;;;9.12;62.84;98710.75;5125542;27;20232;-67
2023/03/28 08:36:54;;;;;;;0.60;0.60;;;;;;;9.25;61.80;98711.97;5121628;27;20685;-63
2023/03/28 08:39:22;;;;;;;0.80;0.80;;;;;;;9.30;61.20;98729.72;5129129;27;20289;-62
2023/03/28 08:42:19;;;;;;;0.60;0.60;;;;;;;9.44;63.11;98730.91;5121644;27;20194;-66
2023/03/28 08:45:12;;;;;;;0.60;0.60;;;;;;;9.65;59.12;98736.13;5098822;27;20197;-66
2023/03/28 08:47:46;;;;;;;0.60;0.60;;;;;;;9.82;59.82;98731.22;5125948;27;20194;-66
2023/03/28 08:50:18;;;;;;;0.40;0.40;;;;;;;10.30;60.01;98733.66;5131921;27;20227;-65
2023/03/28 08:52:47;;;;;;;0.87;0.87;;;;;;;10.08;58.32;98746.41;5122135;27;20198;-65
2023/03/28 08:55:27;;;;;;;0.57;0.57;;;;;;;10.02;60.33;98751.75;5120495;27;20234;-65
2023/03/28 08:57:55;;;;;;;0.57;0.57;;;;;;;9.92;57.31;98745.31;5128361;27;20246;-65
2023/03/28 09:00:26;;;;;;;0.80;0.80;;;;;;;9.63;59.04;98748.16;5123690;27;20206;-67
2023/03/28 09:02:53;;;;;;;0.63;0.63;;;;;;;9.38;57.35;98726.00;5129856;27;20194;-66
2023/03/28 09:05:33;;;;;;;0.90;0.90;;;;;;;9.15;58.54;98733.66;5121312;27;20209;-65
2023/03/28 09:08:09;;;;;;;0.63;0.63;;;;;;;9.48;60.20;98742.69;5128455;27;20650;-65
2023/03/28 09:10:40;;;;;;;0.70;0.70;;;;;;;10.02;58.71;98749.19;5125510;27;20580;-65
2023/03/28 09:13:20;;;;;;;0.40;0.40;;;;;;;10.03;54.49;98733.78;5117526;27;20205;-65
2023/03/28 09:16:11;;;;;;;0.70;0.70;;;;;;;10.12;54.73;98740.28;5124424;27;20562;-65
2023/03/28 09:19:04;;;;;;;0.50;0.50;;;;;;;10.40;58.13;98738.31;5127429;27;20205;-65
2023/03/28 09:21:46;;;;;;;0.70;0.70;;;;;;;10.49;54.00;98737.97;5128317;27;20206;-65
2023/03/28 09:24:21;;;;;;;0.60;0.60;;;;;;;10.53;54.23;98736.13;5127549;27;20202;-65
2023/03/28 09:26:53;;;;;;;0.47;0.47;;;;;;;10.77;56.93;98762.47;5125804;27;20278;-66
2023/03/28 09:29:24;;;;;;;0.43;0.43;;;;;;;10.79;53.61;98741.00;5125041;27;20213;-65
2023/03/28 09:31:57;;;;;;;0.93;0.93;;;;;;;10.89;53.03;98741.44;5127350;27;20221;-66
2023/03/28 09:34:29;;;;;;;0.40;0.40;;;;;;;10.92;52.76;98725.94;5124652;27;20205;-66
2023/03/28 09:37:00;;;;;;;0.50;0.50;;;;;;;10.97;51.52;98739.41;5124630;27;20214;-66
2023/03/28 09:39:35;;;;;;;0.63;0.63;;;;;;;11.15;54.48;98733.47;5128271;27;20688;-65
2023/03/28 09:42:06;;;;;;;0.40;0.40;;;;;;;11.18;52.83;98738.47;5122332;27;20514;-65
2023/03/28 09:44:40;;;;;;;0.70;0.70;;;;;;;11.10;52.72;98732.84;5126114;27;20202;-65
2023/03/28 09:47:11;;;;;;;0.50;0.50;;;;;;;10.71;50.18;98761.00;5124058;27;20200;-66
2023/03/28 09:49:38;;;;;;;0.50;0.50;;;;;;;10.43;51.31;98761.28;5120521;27;20788;-65
2023/03/28 09:52:15;;;;;;;0.50;0.50;;;;;;;10.27;52.93;98747.41;5121011;27;20224;-65
2023/03/28 09:54:42;;;;;;;0.60;0.60;;;;;;;10.33;52.67;98761.69;5121480;28;20198;-65
2023/03/28 09:57:09;;;;;;;0.50;0.50;;;;;;;10.08;52.59;98773.75;5123841;28;20741;-66
2023/03/28 09:59:36;;;;;;;0.60;0.60;;;;;;;10.15;53.62;98793.13;5116754;28;20210;-65
2023/03/28 10:02:04;;;;;;;0.43;0.43;;;;;;;10.26;53.61;98776.47;5124315;27;20652;-65
2023/03/28 10:04:33;;;;;;;0.40;0.40;;;;;;;10.73;54.65;98786.53;5118280;27;20204;-65
2023/03/28 10:07:29;;;;;;;1.37;1.30;;;;;;;11.06;55.31;98795.44;5124001;27;20210;-65
2023/03/28 10:09:59;;;;;;;0.40;0.40;;;;;;;11.03;51.33;98805.81;5121296;28;20670;-66
2023/03/28 10:12:32;;;;;;;0.60;0.60;;;;;;;11.03;50.31;98793.00;5129901;27;20263;-66
2023/03/28 10:14:59;;;;;;;0.60;0.60;;;;;;;10.92;50.89;98813.13;5118232;28;20197;-65
2023/03/28 10:17:29;;;;;;;0.60;0.60;;;;;;;11.05;51.42;98809.16;5122410;28;20222;-65
2023/03/28 10:20:02;;;;;;;0.50;0.50;;;;;;;11.19;51.65;98816.28;5120376;28;20654;-65
2023/03/28 10:22:35;;;;;;;1.30;1.30;;;;;;;11.42;51.18;98814.41;5123191;27;20485;-66
2023/03/28 10:25:05;;;;;;;0.40;0.40;;;;;;;11.39;50.92;98811.97;5123548;28;20206;-65
2023/03/28 10:27:34;;;;;;;0.50;0.50;;;;;;;11.27;49.14;98809.09;5125487;28;20717;-64
2023/03/28 10:30:15;;;;;;;0.50;0.50;;;;;;;11.22;50.49;98827.25;5120141;28;20198;-65
2023/03/28 10:32:42;;;;;;;0.40;0.40;;;;;;;11.13;49.67;98806.28;5123970;27;20270;-66
2023/03/28 10:35:22;;;;;;;0.53;0.53;;;;;;;11.05;51.72;98799.72;5122757;27;20574;-65
2023/03/28 10:37:54;;;;;;;0.70;0.70;;;;;;;10.97;50.11;98803.50;5119983;28;20218;-66
2023/03/28 10:40:28;;;;;;;0.40;0.40;;;;;;;10.99;50.42;98830.75;5119074;27;20210;-66
2023/03/28 10:42:56;;;;;;;0.50;0.50;;;;;;;11.10;50.06;98821.78;5128019;27;20227;-65
2023/03/28 10:45:30;;;;;;;0.43;0.43;;;;;;;11.12;49.42;98825.94;5130398;27;20206;-65
2023/03/28 10:48:00;;;;;;;0.43;0.43;;;;;;;11.06;49.56;98829.63;5128429;27;20194;-66
2023/03/28 10:50:34;;;;;;;0.60;0.60;;;;;;;11.16;51.06;98826.66;5128887;27;20228;-65
2023/03/28 10:53:12;;;;;;;0.47;0.47;;;;;;;11.18;50.26;98835.97;5127883;27;20622;-65
2023/03/28 10:55:49;;;;;;;0.60;0.60;;;;;;;11.46;50.55;98843.34;5125335;27;20230;-65
2023/03/28 10:58:26;;;;;;;0.50;0.50;;;;;;;11.15;47.37;98820.69;5130501;27;20213;-65
2023/03/28 11:01:00;;;;;;;0.50;0.50;;;;;;;11.25;48.26;98832.25;5125425;27;20206;-66
2023/03/28 11:03:45;;;;;;;0.70;0.70;;;;;;;11.19;47.12;98835.06;5124111;27;20595;-66
2023/03/28 11:06:18;;;;;;;0.40;0.40;;;;;;;11.22;46.12;98837.50;5129678;27;20198;-66
2023/03/28 11:08:57;;;;;;;0.40;0.40;;;;;;;11.30;47.75;98835.47;5124898;27;20209;-64
2023/03/28 11:11:49;;;;;;;0.60;0.60;;;;;;;11.18;47.90;98810.31;5128767;27;20213;-66
2023/03/28 11:14:26;;;;;;;0.50;0.50;;;;;;;10.99;45.67;98835.03;5116721;27;20254;-65
2023/03/28 11:17:02;;;;;;;0.50;0.50;;;;;;;11.13;48.00;98837.91;5120588;27;20217;-65
2023/03/28 11:19:47;;;;;;;0.50;0.50;;;;;;;11.17;46.44;98839.44;5119407;27;20205;-66
2023/03/28 11:22:24;;;;;;;0.50;0.50;;;;;;;11.27;46.82;98842.47;5120847;27;20210;-66
2023/03/28 11:25:02;;;;;;;0.40;0.40;;;;;;;11.20;48.96;98852.13;5120842;27;20205;-66
2023/03/28 11:27:37;;;;;;;0.43;0.43;;;;;;;11.23;47.75;98857.16;5128109;27;20202;-66
2023/03/28 11:30:10;;;;;;;0.50;0.50;;;;;;;11.29;48.64;98864.59;5125971;27;20202;-65
2023/03/28 11:32:44;;;;;;;0.50;0.50;;;;;;;11.29;49.84;98858.59;5127170;27;20250;-65
2023/03/28 11:35:17;;;;;;;0.50;0.50;;;;;;;11.24;48.56;98852.84;5127212;27;20222;-65
2023/03/28 11:37:47;;;;;;;0.50;0.50;;;;;;;11.16;46.83;98852.31;5128821;27;20610;-65
2023/03/28 11:40:22;;;;;;;0.60;0.60;;;;;;;11.01;47.81;98864.06;5130106;27;20333;-65
2023/03/28 11:42:55;;;;;;;0.80;0.80;;;;;;;11.10;47.22;98878.22;5123267;27;20201;-65
2023/03/28 11:45:27;;;;;;;0.50;0.50;;;;;;;10.80;45.97;98890.53;5126179;27;20201;-65
2023/03/28 11:48:04;;;;;;;0.50;0.50;;;;;;;10.87;49.27;98866.31;5126440;27;20674;-66
2023/03/28 11:50:35;;;;;;;0.53;0.53;;;;;;;11.09;45.83;98890.22;5116632;27;20240;-66
2023/03/28 11:53:06;;;;;;;1.90;1.80;;;;;;;11.07;47.11;98897.16;5116179;27;20251;-63
2023/03/28 11:55:40;;;;;;;0.50;0.50;;;;;;;11.12;48.27;98887.50;5120258;27;20634;-65